Time;durP1;ratioP1;P1;durP2;ratioP2;P2;SDS_P1;SDS_P2;PMS_P1;PMS_P2;Temp;Humidity;BMP_temperature;BMP_pressure;BME280_temperature;BME280_humidity;BME280_pressure;Samples;Min_cycle;Max_cycle;Signal;HPM_P1;HPM_P2
2021/05/04 00:02:43;;;;;;;1.13;0.80;;;;;;;;;;4985536;28;20431;-72
2021/05/04 00:05:30;;;;;;;1.33;0.90;;;;;;;;;;4984658;28;20041;-72
2021/05/04 00:08:16;;;;;;;1.85;0.77;;;;;;;;;;4984356;28;20042;-72
2021/05/04 00:11:03;;;;;;;1.27;0.77;;;;;;;;;;4983037;28;20026;-72
2021/05/04 00:13:50;;;;;;;2.38;0.90;;;;;;;;;;4984205;28;20033;-72
2021/05/04 00:16:37;;;;;;;0.88;0.73;;;;;;;;;;4977556;28;20085;-72
2021/05/04 00:19:23;;;;;;;1.77;0.80;;;;;;;;;;4981788;28;20455;-72
2021/05/04 00:22:10;;;;;;;1.75;0.98;;;;;;;;;;4978701;28;20042;-72
2021/05/04 00:24:57;;;;;;;1.85;1.05;;;;;;;;;;4982119;28;20035;-72
2021/05/04 00:27:43;;;;;;;2.30;0.90;;;;;;;;;;4983089;28;20489;-72
2021/05/04 00:30:30;;;;;;;2.03;1.15;;;;;;;;;;4979316;28;20041;-72
2021/05/04 00:33:17;;;;;;;2.35;1.10;;;;;;;;;;4996217;28;20585;-72
2021/05/04 00:36:03;;;;;;;1.50;0.80;;;;;;;;;;4984287;28;20030;-72
2021/05/04 00:38:50;;;;;;;1.33;0.80;;;;;;;;;;4984759;28;20038;-72
2021/05/04 00:41:37;;;;;;;0.98;0.75;;;;;;;;;;4983783;28;20045;-72
2021/05/04 00:44:24;;;;;;;2.20;0.95;;;;;;;;;;4985065;28;20038;-72
2021/05/04 00:47:10;;;;;;;2.28;1.17;;;;;;;;;;4984364;28;20494;-72
2021/05/04 00:49:57;;;;;;;1.50;0.95;;;;;;;;;;4984374;28;20490;-72
2021/05/04 00:52:44;;;;;;;1.90;0.80;;;;;;;;;;4984269;28;20053;-72
2021/05/04 00:55:33;;;;;;;1.55;0.90;;;;;;;;;;4970674;28;20039;-72
2021/05/04 00:58:20;;;;;;;2.05;0.95;;;;;;;;;;4983167;28;20034;-72
2021/05/04 01:01:07;;;;;;;1.25;0.80;;;;;;;;;;4982965;28;20402;-72
2021/05/04 01:03:53;;;;;;;2.25;1.05;;;;;;;;;;4985972;28;20122;-72
2021/05/04 01:06:40;;;;;;;1.90;1.13;;;;;;;;;;4988369;28;20037;-72
2021/05/04 01:09:27;;;;;;;1.73;0.90;;;;;;;;;;4985660;28;20596;-72
2021/05/04 01:12:14;;;;;;;1.02;0.80;;;;;;;;;;4984667;28;20046;-72
2021/05/04 01:15:00;;;;;;;1.50;0.90;;;;;;;;;;4988714;28;20037;-71
2021/05/04 01:17:47;;;;;;;2.58;1.10;;;;;;;;;;4984126;28;20030;-72
2021/05/04 01:20:36;;;;;;;1.20;0.70;;;;;;;;;;4983790;28;20045;-71
2021/05/04 01:23:22;;;;;;;1.02;0.75;;;;;;;;;;4986532;28;20034;-71
2021/05/04 01:26:09;;;;;;;2.08;1.02;;;;;;;;;;4987547;28;20383;-71
2021/05/04 01:28:56;;;;;;;1.50;0.82;;;;;;;;;;4985606;28;20035;-72
2021/05/04 01:31:43;;;;;;;2.22;1.02;;;;;;;;;;4988254;28;20156;-71
2021/05/04 01:34:30;;;;;;;1.63;1.00;;;;;;;;;;4985742;28;20038;-72
2021/05/04 01:37:16;;;;;;;1.77;0.93;;;;;;;;;;4982120;28;20041;-71
2021/05/04 01:40:03;;;;;;;2.25;0.93;;;;;;;;;;4986690;28;20056;-71
2021/05/04 01:42:50;;;;;;;1.23;0.82;;;;;;;;;;4987568;28;20060;-71
2021/05/04 01:45:37;;;;;;;1.52;0.90;;;;;;;;;;4987838;28;20034;-71
2021/05/04 01:48:23;;;;;;;2.13;1.00;;;;;;;;;;4981978;28;20034;-71
2021/05/04 01:51:11;;;;;;;2.55;1.00;;;;;;;;;;4982891;28;20034;-71
2021/05/04 01:53:58;;;;;;;1.33;1.00;;;;;;;;;;4986713;28;20073;-71
2021/05/04 01:56:44;;;;;;;2.75;1.20;;;;;;;;;;4984877;28;20406;-71
2021/05/04 01:59:31;;;;;;;1.60;1.10;;;;;;;;;;4987269;28;20038;-71
2021/05/04 02:02:18;;;;;;;1.35;1.08;;;;;;;;;;4981529;28;20062;-70
2021/05/04 02:05:06;;;;;;;1.75;1.00;;;;;;;;;;4984921;28;20034;-71
2021/05/04 02:07:52;;;;;;;1.50;1.00;;;;;;;;;;4983792;28;20038;-71
2021/05/04 02:10:40;;;;;;;1.90;0.93;;;;;;;;;;4982465;28;20030;-72
2021/05/04 02:13:26;;;;;;;1.13;0.90;;;;;;;;;;4985204;28;20053;-71
2021/05/04 02:16:13;;;;;;;2.10;1.20;;;;;;;;;;4986812;28;20053;-72
2021/05/04 02:19:00;;;;;;;2.05;1.10;;;;;;;;;;4975056;28;20058;-71
2021/05/04 02:21:47;;;;;;;1.17;0.90;;;;;;;;;;4979611;28;20053;-71
2021/05/04 02:24:33;;;;;;;2.00;1.17;;;;;;;;;;4982744;28;20038;-71
2021/05/04 02:27:20;;;;;;;1.60;0.98;;;;;;;;;;4978863;28;20034;-71
2021/05/04 02:30:07;;;;;;;1.83;1.17;;;;;;;;;;4984816;28;20382;-71
2021/05/04 02:32:54;;;;;;;1.30;0.90;;;;;;;;;;4987000;28;20050;-71
2021/05/04 02:35:40;;;;;;;1.73;1.10;;;;;;;;;;4984543;28;20057;-72
2021/05/04 02:38:29;;;;;;;2.17;1.30;;;;;;;;;;4984407;28;20036;-72
2021/05/04 02:41:16;;;;;;;1.48;0.90;;;;;;;;;;4984506;28;20031;-71
2021/05/04 02:44:03;;;;;;;1.60;1.00;;;;;;;;;;4974325;28;20058;-72
2021/05/04 02:46:50;;;;;;;3.22;1.20;;;;;;;;;;4986550;28;20054;-72
2021/05/04 02:49:36;;;;;;;1.45;1.08;;;;;;;;;;4985168;28;20042;-72
2021/05/04 02:52:23;;;;;;;2.40;1.08;;;;;;;;;;4985762;28;20032;-71
2021/05/04 02:55:10;;;;;;;1.40;0.82;;;;;;;;;;4984027;28;20060;-71
2021/05/04 02:57:57;;;;;;;1.98;0.90;;;;;;;;;;4985165;28;20143;-71
2021/05/04 03:00:43;;;;;;;2.58;1.20;;;;;;;;;;4986366;28;20037;-71
2021/05/04 03:03:33;;;;;;;2.10;1.05;;;;;;;;;;4985447;28;20391;-71
2021/05/04 03:06:19;;;;;;;1.60;1.05;;;;;;;;;;4997722;28;20517;-71
2021/05/04 03:09:07;;;;;;;1.98;1.20;;;;;;;;;;4986417;28;20046;-71
2021/05/04 03:11:53;;;;;;;2.10;1.17;;;;;;;;;;4975363;28;20034;-71
2021/05/04 03:14:40;;;;;;;2.10;1.20;;;;;;;;;;4983200;28;20102;-71
2021/05/04 03:17:27;;;;;;;2.38;1.10;;;;;;;;;;4985204;28;20044;-71
2021/05/04 03:20:14;;;;;;;2.13;1.33;;;;;;;;;;4984422;28;20556;-71
2021/05/04 03:23:01;;;;;;;3.08;1.30;;;;;;;;;;4982646;28;20133;-71
2021/05/04 03:25:48;;;;;;;3.97;1.30;;;;;;;;;;4986091;28;20045;-71
2021/05/04 03:28:34;;;;;;;2.50;1.38;;;;;;;;;;4982021;28;20039;-70
2021/05/04 03:31:21;;;;;;;1.90;1.10;;;;;;;;;;4983191;28;20053;-71
2021/05/04 03:34:08;;;;;;;2.20;1.10;;;;;;;;;;4983869;28;20926;-72
2021/05/04 03:36:54;;;;;;;4.55;1.40;;;;;;;;;;4982895;28;20034;-71
2021/05/04 03:39:41;;;;;;;1.83;1.30;;;;;;;;;;4972500;28;20076;-72
2021/05/04 03:42:28;;;;;;;1.92;1.13;;;;;;;;;;4983846;28;20149;-71
2021/05/04 03:45:15;;;;;;;1.70;1.10;;;;;;;;;;4984649;28;20588;-72
2021/05/04 03:48:01;;;;;;;1.63;1.13;;;;;;;;;;4982986;28;20161;-72
2021/05/04 03:50:48;;;;;;;2.38;1.15;;;;;;;;;;4985145;28;20031;-72
2021/05/04 03:53:37;;;;;;;4.25;1.27;;;;;;;;;;4983093;28;20027;-72
2021/05/04 03:56:23;;;;;;;2.67;1.13;;;;;;;;;;4984963;28;20041;-72
2021/05/04 03:59:10;;;;;;;2.00;1.30;;;;;;;;;;4982663;28;20375;-72
2021/05/04 04:01:57;;;;;;;1.65;0.90;;;;;;;;;;4985703;28;20404;-71
2021/05/04 04:04:43;;;;;;;1.90;1.08;;;;;;;;;;4985969;28;20038;-72
2021/05/04 04:07:30;;;;;;;1.77;1.20;;;;;;;;;;4980025;28;20053;-72
2021/05/04 04:10:17;;;;;;;1.67;0.93;;;;;;;;;;4984523;28;20054;-72
2021/05/04 04:13:03;;;;;;;2.70;1.10;;;;;;;;;;4984191;28;20038;-72
2021/05/04 04:15:50;;;;;;;2.95;1.20;;;;;;;;;;4983862;28;20045;-71
2021/05/04 04:18:37;;;;;;;1.60;1.10;;;;;;;;;;4985836;28;20034;-70
2021/05/04 04:21:24;;;;;;;1.60;1.08;;;;;;;;;;4986528;28;20034;-72
2021/05/04 04:24:11;;;;;;;2.25;1.20;;;;;;;;;;4987287;28;20363;-70
2021/05/04 04:26:57;;;;;;;2.17;1.17;;;;;;;;;;4983551;28;20058;-71
2021/05/04 04:29:44;;;;;;;2.03;1.23;;;;;;;;;;4983415;28;20495;-72
2021/05/04 04:32:31;;;;;;;1.48;1.00;;;;;;;;;;4986147;28;20058;-71
2021/05/04 04:35:18;;;;;;;1.90;1.08;;;;;;;;;;4985083;28;20045;-72
2021/05/04 04:38:05;;;;;;;2.88;1.30;;;;;;;;;;4986843;28;20047;-72
2021/05/04 04:40:51;;;;;;;2.78;1.13;;;;;;;;;;4986761;28;20596;-72
2021/05/04 04:43:38;;;;;;;1.80;1.20;;;;;;;;;;4987604;28;20125;-71
2021/05/04 04:46:39;;;;;;;2.10;1.10;;;;;;;;;;4989190;28;20049;-73
2021/05/04 04:49:25;;;;;;;2.15;1.02;;;;;;;;;;4987418;28;20034;-72
2021/05/04 04:52:12;;;;;;;1.80;1.23;;;;;;;;;;4986320;28;20057;-73
2021/05/04 04:54:59;;;;;;;3.00;1.20;;;;;;;;;;4987582;28;20156;-72
2021/05/04 04:57:46;;;;;;;1.45;1.00;;;;;;;;;;4989439;28;20030;-72
2021/05/04 05:00:32;;;;;;;2.22;1.20;;;;;;;;;;4984476;28;20050;-73
2021/05/04 05:03:20;;;;;;;2.50;1.10;;;;;;;;;;4979372;28;20049;-73
2021/05/04 05:06:06;;;;;;;2.13;1.17;;;;;;;;;;5001486;28;20049;-73
2021/05/04 05:08:53;;;;;;;2.92;1.20;;;;;;;;;;4987611;28;20035;-73
2021/05/04 05:11:40;;;;;;;1.80;1.25;;;;;;;;;;4978422;28;20038;-73
2021/05/04 05:14:27;;;;;;;2.60;1.20;;;;;;;;;;4987642;28;20491;-73
2021/05/04 05:17:15;;;;;;;2.08;1.20;;;;;;;;;;4988014;28;20031;-72
2021/05/04 05:20:02;;;;;;;1.98;1.00;;;;;;;;;;5000209;28;20041;-72
2021/05/04 05:22:48;;;;;;;2.75;1.15;;;;;;;;;;4988548;28;20046;-72
2021/05/04 05:25:35;;;;;;;1.70;1.00;;;;;;;;;;4983289;28;20031;-72
2021/05/04 05:28:22;;;;;;;2.00;1.10;;;;;;;;;;4986574;28;20073;-73
2021/05/04 05:31:09;;;;;;;1.63;0.90;;;;;;;;;;4978027;28;20815;-72
2021/05/04 05:33:35;;;;;;;1.52;1.13;;;;;;;;;;4985614;28;20121;-72
2021/05/04 05:36:02;;;;;;;2.83;1.30;;;;;;;;;;4983096;28;20038;-73
2021/05/04 05:38:29;;;;;;;1.60;1.08;;;;;;;;;;4977450;28;20573;-73
2021/05/04 05:40:56;;;;;;;1.35;1.10;;;;;;;;;;4980767;28;20527;-72
2021/05/04 05:43:23;;;;;;;1.77;1.20;;;;;;;;;;4982731;28;20062;-73
2021/05/04 05:45:50;;;;;;;2.42;1.00;;;;;;;;;;4984149;28;20062;-73
2021/05/04 05:48:16;;;;;;;1.98;1.10;;;;;;;;;;4984011;28;20061;-72
2021/05/04 05:50:43;;;;;;;1.75;1.02;;;;;;;;;;4983451;28;20878;-73
2021/05/04 05:53:09;;;;;;;1.75;1.00;;;;;;;;;;4982715;28;20069;-73
2021/05/04 05:55:36;;;;;;;1.88;1.10;;;;;;;;;;4982444;28;20054;-73
2021/05/04 05:58:02;;;;;;;1.70;1.15;;;;;;;;;;4963517;28;20070;-73
2021/05/04 06:00:28;;;;;;;1.63;1.17;;;;;;;;;;4975687;28;20081;-73
2021/05/04 06:02:55;;;;;;;1.38;0.98;;;;;;;;;;4982764;28;20042;-73
2021/05/04 06:05:22;;;;;;;2.63;1.00;;;;;;;;;;4979858;28;20073;-73
2021/05/04 06:07:48;;;;;;;2.05;1.20;;;;;;;;;;4983715;28;20577;-74
2021/05/04 06:10:15;;;;;;;1.42;1.02;;;;;;;;;;4980837;28;20061;-74
2021/05/04 06:12:41;;;;;;;1.63;1.05;;;;;;;;;;4983918;28;20066;-74
2021/05/04 06:15:08;;;;;;;2.00;0.90;;;;;;;;;;4983598;28;20069;-74
2021/05/04 06:17:34;;;;;;;3.20;1.00;;;;;;;;;;4981019;28;20062;-73
2021/05/04 06:20:01;;;;;;;2.25;0.98;;;;;;;;;;4984392;28;20088;-73
2021/05/04 06:22:27;;;;;;;2.20;1.00;;;;;;;;;;4982143;28;20065;-73
2021/05/04 06:24:54;;;;;;;1.50;1.02;;;;;;;;;;4983271;28;20443;-72
2021/05/04 06:27:20;;;;;;;2.70;1.20;;;;;;;;;;4981771;28;20074;-72
2021/05/04 06:29:47;;;;;;;1.80;1.00;;;;;;;;;;4980413;28;20062;-73
2021/05/04 06:32:15;;;;;;;1.80;1.30;;;;;;;;;;4978080;28;20093;-73
2021/05/04 06:34:42;;;;;;;1.33;0.90;;;;;;;;;;4983725;28;20058;-72
2021/05/04 06:37:08;;;;;;;3.17;1.05;;;;;;;;;;4981446;28;20062;-72
2021/05/04 06:39:35;;;;;;;2.05;1.02;;;;;;;;;;4982781;28;20066;-72
2021/05/04 06:42:01;;;;;;;1.80;1.10;;;;;;;;;;4984981;28;20062;-72
2021/05/04 06:44:27;;;;;;;1.73;1.00;;;;;;;;;;4983557;28;20077;-72
2021/05/04 06:46:54;;;;;;;1.90;1.00;;;;;;;;;;4984304;28;20070;-72
2021/05/04 06:49:20;;;;;;;1.98;1.20;;;;;;;;;;4982541;28;20553;-73
2021/05/04 06:51:47;;;;;;;2.83;1.20;;;;;;;;;;4983549;28;20073;-72
2021/05/04 06:54:13;;;;;;;1.77;0.93;;;;;;;;;;4980587;28;20097;-73
2021/05/04 06:56:39;;;;;;;1.85;1.13;;;;;;;;;;4983963;28;20050;-73
2021/05/04 06:59:06;;;;;;;2.03;0.90;;;;;;;;;;4976692;28;20140;-73
2021/05/04 07:01:33;;;;;;;1.67;1.00;;;;;;;;;;4983467;28;20133;-72
2021/05/04 07:04:00;;;;;;;3.05;1.10;;;;;;;;;;4994863;28;20621;-73
2021/05/04 07:06:26;;;;;;;2.15;1.10;;;;;;;;;;4981886;28;20160;-72
2021/05/04 07:08:53;;;;;;;1.50;0.93;;;;;;;;;;4983738;28;20067;-73
2021/05/04 07:11:19;;;;;;;1.30;0.95;;;;;;;;;;4983848;28;20165;-73
2021/05/04 07:13:45;;;;;;;2.40;1.00;;;;;;;;;;4981835;28;20034;-72
2021/05/04 07:16:12;;;;;;;2.70;0.90;;;;;;;;;;4964563;28;20089;-73
2021/05/04 07:18:38;;;;;;;2.63;1.13;;;;;;;;;;4982121;28;20549;-72
2021/05/04 07:21:08;;;;;;;2.10;1.10;;;;;;;;;;4982344;28;20070;-74
2021/05/04 07:23:36;;;;;;;1.67;1.10;;;;;;;;;;4980816;28;20148;-73
2021/05/04 07:26:02;;;;;;;1.77;0.95;;;;;;;;;;4997877;28;20042;-73
2021/05/04 07:28:29;;;;;;;2.72;1.23;;;;;;;;;;4982453;28;20031;-72
2021/05/04 07:30:56;;;;;;;1.83;0.95;;;;;;;;;;4984220;28;20082;-73
2021/05/04 07:33:22;;;;;;;1.27;1.00;;;;;;;;;;4977663;28;20070;-72
2021/05/04 07:35:49;;;;;;;1.98;1.02;;;;;;;;;;4984233;28;20085;-73
2021/05/04 07:38:16;;;;;;;1.58;1.00;;;;;;;;;;4981273;28;20068;-73
2021/05/04 07:40:43;;;;;;;1.33;0.90;;;;;;;;;;4977217;28;20545;-73
2021/05/04 07:43:09;;;;;;;2.00;1.00;;;;;;;;;;4961313;28;20081;-73
2021/05/04 07:45:36;;;;;;;1.80;1.00;;;;;;;;;;4977546;28;20066;-73
2021/05/04 07:48:04;;;;;;;1.95;1.05;;;;;;;;;;4984352;28;20089;-73
2021/05/04 07:50:33;;;;;;;2.17;1.10;;;;;;;;;;4984056;28;20034;-73
2021/05/04 07:52:59;;;;;;;1.70;1.20;;;;;;;;;;4982275;28;20065;-73
2021/05/04 07:55:26;;;;;;;1.45;0.98;;;;;;;;;;4956781;28;20521;-72
2021/05/04 07:57:52;;;;;;;1.65;0.93;;;;;;;;;;4983180;28;20031;-72
2021/05/04 08:00:19;;;;;;;1.77;1.02;;;;;;;;;;4982298;28;20086;-72
2021/05/04 08:02:45;;;;;;;1.55;1.00;;;;;;;;;;4980713;28;20078;-73
2021/05/04 08:05:12;;;;;;;1.63;0.98;;;;;;;;;;4978670;28;20093;-74
2021/05/04 08:07:39;;;;;;;2.35;1.08;;;;;;;;;;4979674;28;20070;-77
2021/05/04 08:10:06;;;;;;;4.22;1.35;;;;;;;;;;4952893;28;20618;-77
2021/05/04 08:12:34;;;;;;;4.43;1.25;;;;;;;;;;4964309;28;20453;-78
2021/05/04 08:15:01;;;;;;;3.22;1.40;;;;;;;;;;4983995;28;20092;-77
2021/05/04 08:17:30;;;;;;;3.92;1.02;;;;;;;;;;4964935;28;20043;-77
2021/05/04 08:20:00;;;;;;;1.65;1.15;;;;;;;;;;4999982;28;20046;-77
2021/05/04 08:22:26;;;;;;;3.72;1.27;;;;;;;;;;4983533;28;20516;-78
2021/05/04 08:24:55;;;;;;;3.75;1.20;;;;;;;;;;5000021;28;20790;-77
2021/05/04 08:27:21;;;;;;;2.13;1.10;;;;;;;;;;4985132;28;20196;-77
2021/05/04 08:29:48;;;;;;;3.35;1.20;;;;;;;;;;4986160;28;20085;-77
2021/05/04 08:32:14;;;;;;;1.55;1.13;;;;;;;;;;4983168;28;20059;-77
2021/05/04 08:34:41;;;;;;;2.53;1.10;;;;;;;;;;5017820;28;20093;-77
2021/05/04 08:37:07;;;;;;;2.50;1.02;;;;;;;;;;4982281;28;20093;-77
2021/05/04 08:39:34;;;;;;;2.10;1.25;;;;;;;;;;5016440;28;20671;-77
2021/05/04 08:42:00;;;;;;;2.55;1.15;;;;;;;;;;4978989;28;20049;-77
2021/05/04 08:44:27;;;;;;;1.92;1.17;;;;;;;;;;4983500;28;20093;-77
2021/05/04 08:46:53;;;;;;;4.47;1.33;;;;;;;;;;4977319;28;20061;-77
2021/05/04 08:49:20;;;;;;;1.77;1.20;;;;;;;;;;4977913;28;20074;-78
2021/05/04 08:51:48;;;;;;;2.95;1.27;;;;;;;;;;4982947;28;20058;-77
2021/05/04 08:54:18;;;;;;;2.92;1.33;;;;;;;;;;4965444;28;20057;-77
2021/05/04 08:56:45;;;;;;;1.80;1.20;;;;;;;;;;4982311;28;20798;-77
2021/05/04 08:59:12;;;;;;;2.47;1.10;;;;;;;;;;4966419;28;20585;-78
2021/05/04 09:01:38;;;;;;;1.80;1.23;;;;;;;;;;5002039;28;20030;-78
2021/05/04 09:04:09;;;;;;;1.92;1.02;;;;;;;;;;4962765;28;20078;-77
2021/05/04 09:06:45;;;;;;;3.20;1.17;;;;;;;;;;4983618;28;20052;-77
2021/05/04 09:09:21;;;;;;;1.48;1.02;;;;;;;;;;4983664;28;20117;-77
2021/05/04 09:14:27;;;;;;;3.83;1.45;;;;;;;;;;4974024;28;20066;-78
2021/05/04 09:17:01;;;;;;;1.25;0.90;;;;;;;;;;5013971;28;20680;-77
2021/05/04 09:21:53;;;;;;;2.20;1.25;;;;;;;;;;4984590;28;20057;-77
2021/05/04 09:24:24;;;;;;;2.00;1.40;;;;;;;;;;4981263;28;20074;-76
2021/05/04 09:27:07;;;;;;;1.73;1.00;;;;;;;;;;4986796;28;20462;-77
2021/05/04 09:29:36;;;;;;;2.88;1.20;;;;;;;;;;4985240;28;20049;-79
2021/05/04 09:32:12;;;;;;;2.55;1.17;;;;;;;;;;4997808;28;20145;-78
2021/05/04 09:34:55;;;;;;;2.25;1.25;;;;;;;;;;4960900;28;21554;-77
2021/05/04 09:37:24;;;;;;;1.67;1.17;;;;;;;;;;4982871;28;20086;-76
2021/05/04 09:39:51;;;;;;;2.13;1.20;;;;;;;;;;4995664;28;20123;-77
2021/05/04 09:42:18;;;;;;;1.83;1.13;;;;;;;;;;4980702;28;20572;-78
2021/05/04 09:44:46;;;;;;;1.77;1.20;;;;;;;;;;5013664;28;20046;-78
2021/05/04 09:47:13;;;;;;;2.15;1.10;;;;;;;;;;4984918;28;20586;-77
2021/05/04 09:49:40;;;;;;;1.90;1.20;;;;;;;;;;5000498;28;20042;-78
2021/05/04 09:52:17;;;;;;;2.00;1.20;;;;;;;;;;4983047;28;20054;-78
2021/05/04 09:54:45;;;;;;;2.83;1.30;;;;;;;;;;4966875;28;20620;-77
2021/05/04 09:57:33;;;;;;;1.73;1.05;;;;;;;;;;4973614;28;20070;-78
2021/05/04 10:00:00;;;;;;;2.10;1.20;;;;;;;;;;4985149;28;20626;-77
2021/05/04 10:02:28;;;;;;;1.80;1.30;;;;;;;;;;4967160;28;20493;-77
2021/05/04 10:04:55;;;;;;;2.38;1.20;;;;;;;;;;5013784;28;20123;-78
2021/05/04 10:07:22;;;;;;;3.00;1.15;;;;;;;;;;4974068;28;20054;-77
2021/05/04 10:09:49;;;;;;;2.08;1.20;;;;;;;;;;4990100;28;20565;-77
2021/05/04 10:12:18;;;;;;;2.33;1.30;;;;;;;;;;4984426;28;20078;-77
2021/05/04 10:14:45;;;;;;;1.77;1.20;;;;;;;;;;4960522;28;20067;-77
2021/05/04 10:17:11;;;;;;;2.25;1.30;;;;;;;;;;4964993;28;20057;-77
2021/05/04 10:19:38;;;;;;;1.80;1.27;;;;;;;;;;4971360;28;20038;-77
2021/05/04 10:22:05;;;;;;;3.20;1.40;;;;;;;;;;4983412;28;20038;-78
2021/05/04 10:24:35;;;;;;;1.90;1.10;;;;;;;;;;4995794;28;20702;-77
2021/05/04 10:27:03;;;;;;;2.67;1.35;;;;;;;;;;4984648;28;20050;-78
2021/05/04 10:29:29;;;;;;;2.53;1.30;;;;;;;;;;4980731;28;20050;-77
2021/05/04 10:31:58;;;;;;;2.35;1.30;;;;;;;;;;4997611;28;20074;-78
2021/05/04 10:34:25;;;;;;;1.80;1.27;;;;;;;;;;4962289;28;20065;-76
2021/05/04 10:36:56;;;;;;;3.10;1.40;;;;;;;;;;4981882;28;20042;-76
2021/05/04 10:39:37;;;;;;;2.28;1.30;;;;;;;;;;4982272;28;20066;-78
2021/05/04 10:42:05;;;;;;;;;;;;;;;;;;4984549;28;20502;-77
2021/05/04 10:44:51;;;;;;;1.77;1.27;;;;;;;;;;5013483;28;22256;-75
2021/05/04 10:47:36;;;;;;;1.92;1.30;;;;;;;;;;4963836;28;20085;-75
2021/05/04 10:50:04;;;;;;;2.20;1.30;;;;;;;;;;4960595;28;20502;-75
2021/05/04 10:52:52;;;;;;;2.20;1.45;;;;;;;;;;4965221;28;20054;-77
2021/05/04 10:55:23;;;;;;;5.95;1.50;;;;;;;;;;4990083;28;20204;-77
2021/05/04 10:58:02;;;;;;;3.53;1.38;;;;;;;;;;4977319;28;20475;-77
2021/05/04 11:00:43;;;;;;;2.80;1.33;;;;;;;;;;4994692;28;20066;-75
2021/05/04 11:03:28;;;;;;;2.85;1.40;;;;;;;;;;4981159;28;20058;-75
2021/05/04 11:05:54;;;;;;;3.03;1.40;;;;;;;;;;4973708;28;20057;-77
2021/05/04 11:08:21;;;;;;;2.28;1.45;;;;;;;;;;4997383;28;20191;-77
2021/05/04 11:11:06;;;;;;;1.83;1.30;;;;;;;;;;4998352;28;20081;-75
2021/05/04 11:13:48;;;;;;;2.65;1.30;;;;;;;;;;4993915;28;20108;-78
2021/05/04 11:16:14;;;;;;;;;;;;;;;;;;4976284;28;20552;-77
2021/05/04 11:19:01;;;;;;;2.17;1.42;;;;;;;;;;4994499;28;19945;-77
2021/05/04 11:21:37;;;;;;;2.10;1.60;;;;;;;;;;4961054;28;20080;-78
2021/05/04 11:24:22;;;;;;;2.25;1.30;;;;;;;;;;4982379;28;20065;-75
2021/05/04 11:26:53;;;;;;;2.30;1.30;;;;;;;;;;4973769;28;20057;-78
2021/05/04 11:29:20;;;;;;;1.73;1.35;;;;;;;;;;4951675;28;20116;-75
2021/05/04 11:31:48;;;;;;;1.80;1.30;;;;;;;;;;4999203;28;20066;-77
2021/05/04 11:34:32;;;;;;;2.75;1.50;;;;;;;;;;4970488;28;20497;-77
2021/05/04 11:36:59;;;;;;;2.20;1.25;;;;;;;;;;4980548;28;20506;-77
2021/05/04 11:39:26;;;;;;;3.00;1.50;;;;;;;;;;4963883;28;20062;-75
2021/05/04 11:41:56;;;;;;;2.83;1.48;;;;;;;;;;4980640;28;20062;-78
2021/05/04 11:44:33;;;;;;;3.65;1.40;;;;;;;;;;4982574;28;20133;-75
2021/05/04 11:47:19;;;;;;;2.83;1.70;;;;;;;;;;4977097;28;20097;-75
2021/05/04 11:49:45;;;;;;;2.53;1.40;;;;;;;;;;4982642;28;20132;-75
2021/05/04 11:52:17;;;;;;;2.28;1.35;;;;;;;;;;4980802;28;20040;-77
2021/05/04 11:54:45;;;;;;;2.50;1.48;;;;;;;;;;4982844;28;20065;-76
2021/05/04 11:57:12;;;;;;;2.15;1.30;;;;;;;;;;4963023;28;20062;-76
2021/05/04 11:59:38;;;;;;;2.25;1.27;;;;;;;;;;4982650;28;20108;-76
2021/05/04 12:02:05;;;;;;;3.35;1.40;;;;;;;;;;4958761;28;20119;-76
2021/05/04 12:04:51;;;;;;;3.22;1.50;;;;;;;;;;4980381;28;20069;-75
2021/05/04 12:07:37;;;;;;;1.88;1.25;;;;;;;;;;4979880;28;20058;-77
2021/05/04 12:10:05;;;;;;;2.88;1.52;;;;;;;;;;4983039;28;20073;-76
2021/05/04 12:12:44;;;;;;;2.13;1.33;;;;;;;;;;4981548;28;20485;-76
2021/05/04 12:15:13;;;;;;;1.90;1.35;;;;;;;;;;4982447;28;20065;-77
2021/05/04 12:17:43;;;;;;;2.85;1.30;;;;;;;;;;4963382;28;20042;-76
2021/05/04 12:20:10;;;;;;;1.73;1.33;;;;;;;;;;4982930;28;20058;-76
2021/05/04 12:22:50;;;;;;;2.10;1.42;;;;;;;;;;4968743;28;20535;-76
2021/05/04 12:25:18;;;;;;;2.08;1.42;;;;;;;;;;4983570;28;20085;-76
2021/05/04 12:27:45;;;;;;;2.10;1.38;;;;;;;;;;4984388;28;20088;-76
2021/05/04 12:30:14;;;;;;;2.28;1.60;;;;;;;;;;4985068;28;20073;-76
2021/05/04 12:32:40;;;;;;;2.15;1.40;;;;;;;;;;5018956;28;20121;-76
2021/05/04 12:35:25;;;;;;;2.88;1.50;;;;;;;;;;4981023;28;20062;-78
2021/05/04 12:38:16;;;;;;;3.13;1.60;;;;;;;;;;4964600;28;20081;-77
2021/05/04 12:40:51;;;;;;;2.30;1.33;;;;;;;;;;4979353;28;20934;-77
2021/05/04 12:43:28;;;;;;;2.92;1.65;;;;;;;;;;4997800;28;20231;-77
2021/05/04 12:46:03;;;;;;;2.28;1.50;;;;;;;;;;4972130;28;20140;-77
2021/05/04 12:48:30;;;;;;;3.58;1.63;;;;;;;;;;4997090;28;20066;-78
2021/05/04 12:50:58;;;;;;;2.88;1.55;;;;;;;;;;4976312;28;20108;-78
2021/05/04 12:53:27;;;;;;;2.20;1.42;;;;;;;;;;4980805;28;20508;-78
2021/05/04 12:56:04;;;;;;;3.15;1.63;;;;;;;;;;4982842;28;20572;-76
2021/05/04 12:58:31;;;;;;;2.30;1.40;;;;;;;;;;4975853;28;20100;-77
2021/05/04 13:01:04;;;;;;;3.53;1.50;;;;;;;;;;5018386;28;20069;-77
2021/05/04 13:03:44;;;;;;;2.25;1.58;;;;;;;;;;4983024;28;20061;-73
2021/05/04 13:06:11;;;;;;;2.55;1.75;;;;;;;;;;4982947;28;20073;-73
2021/05/04 13:08:51;;;;;;;2.67;1.85;;;;;;;;;;4962238;28;20058;-73
2021/05/04 13:11:20;;;;;;;2.28;1.50;;;;;;;;;;5008385;28;20074;-73
2021/05/04 13:13:59;;;;;;;2.80;1.50;;;;;;;;;;4984709;28;20085;-73
2021/05/04 13:30:20;;;;;;;2.50;1.60;;;;;;;;;;4984133;28;20148;-74
2021/05/04 13:32:50;;;;;;;3.55;1.67;;;;;;;;;;4982629;28;20175;-73
2021/05/04 13:35:20;;;;;;;3.47;1.80;;;;;;;;;;4981772;28;20120;-72
2021/05/04 13:38:04;;;;;;;2.58;1.58;;;;;;;;;;4986366;28;20438;-72
2021/05/04 13:48:45;;;;;;;3.53;1.58;;;;;;;;;;4979341;28;20116;-73
2021/05/04 13:51:12;;;;;;;2.22;1.75;;;;;;;;;;4983137;28;20383;-74
2021/05/04 13:53:38;;;;;;;3.05;1.50;;;;;;;;;;4998466;28;20065;-73
2021/05/04 13:56:05;;;;;;;1.98;1.52;;;;;;;;;;4984475;28;20124;-73
2021/05/04 13:58:33;;;;;;;3.17;1.70;;;;;;;;;;4980319;28;20332;-73
2021/05/04 14:01:11;;;;;;;2.72;1.63;;;;;;;;;;4982829;28;20115;-73
2021/05/04 14:27:42;;;;;;;2.10;1.60;;;;;;;;;;4985232;28;20141;-78
2021/05/04 14:30:10;;;;;;;3.72;1.30;;;;;;;;;;4975313;28;20066;-78
2021/05/04 14:32:37;;;;;;;3.10;1.55;;;;;;;;;;4959659;28;20074;-78
2021/05/04 14:35:06;;;;;;;2.97;1.60;;;;;;;;;;4981921;28;20108;-78
2021/05/04 14:57:04;;;;;;;14.02;1.80;;;;;;;;;;4958700;28;21329;-79
2021/05/04 14:59:48;;;;;;;3.08;1.40;;;;;;;;;;4962960;28;20081;-79
2021/05/04 15:02:15;;;;;;;1.77;1.20;;;;;;;;;;4978026;28;20077;-79
2021/05/04 15:04:46;;;;;;;1.92;1.30;;;;;;;;;;4973817;28;20066;-79
2021/05/04 15:07:13;;;;;;;2.70;1.35;;;;;;;;;;4979970;28;20062;-77
2021/05/04 15:09:39;;;;;;;2.63;1.27;;;;;;;;;;4998421;28;20415;-78
2021/05/04 15:12:09;;;;;;;2.67;1.40;;;;;;;;;;4975680;28;20131;-78
2021/05/04 15:14:41;;;;;;;3.22;1.70;;;;;;;;;;4980750;28;20288;-78
2021/05/04 15:17:15;;;;;;;3.90;1.80;;;;;;;;;;4980499;28;20069;-79
2021/05/04 15:22:26;;;;;;;4.22;1.58;;;;;;;;;;4980111;28;20575;-79
2021/05/04 15:24:52;;;;;;;3.20;1.70;;;;;;;;;;4980579;28;20124;-77
2021/05/04 15:27:19;;;;;;;1.90;1.30;;;;;;;;;;4958466;28;20089;-78
2021/05/04 15:29:46;;;;;;;4.15;1.48;;;;;;;;;;4974628;28;20223;-78
2021/05/04 15:32:28;;;;;;;2.75;1.50;;;;;;;;;;4979011;28;20128;-78
2021/05/04 15:34:58;;;;;;;4.80;1.50;;;;;;;;;;4955373;28;20506;-77
2021/05/04 15:37:25;;;;;;;3.53;1.60;;;;;;;;;;4977155;28;20063;-76
2021/05/04 15:39:56;;;;;;;3.55;1.58;;;;;;;;;;4983838;28;20077;-78
2021/05/04 15:42:23;;;;;;;;;;;;;;;;;;5011361;28;20037;-79
2021/05/04 15:44:55;;;;;;;2.40;1.17;;;;;;;;;;4991261;28;20064;-77
2021/05/04 15:47:32;;;;;;;2.65;1.60;;;;;;;;;;4980477;28;20108;-77
2021/05/04 15:50:04;;;;;;;2.70;1.45;;;;;;;;;;5012507;28;20078;-77
2021/05/04 15:52:58;;;;;;;2.42;1.33;;;;;;;;;;4981133;28;20112;-78
2021/05/04 16:06:37;;;;;;;2.97;1.35;;;;;;;;;;4993014;28;20224;-76
2021/05/04 16:09:15;;;;;;;2.88;1.48;;;;;;;;;;5013023;28;20557;-76
2021/05/04 16:11:42;;;;;;;2.65;1.45;;;;;;;;;;4979893;28;20112;-76
2021/05/04 16:14:08;;;;;;;3.85;1.75;;;;;;;;;;4980740;28;20597;-76
2021/05/04 16:16:35;;;;;;;3.33;1.30;;;;;;;;;;4960330;28;20059;-78
2021/05/04 16:19:10;;;;;;;2.65;1.20;;;;;;;;;;4979270;28;20049;-77
2021/05/04 16:21:41;;;;;;;3.03;1.45;;;;;;;;;;4981756;28;20081;-77
2021/05/04 16:24:23;;;;;;;2.60;1.20;;;;;;;;;;4967945;28;20077;-79
2021/05/04 16:32:20;;;;;;;3.60;1.55;;;;;;;;;;4980778;28;20698;-77
2021/05/04 16:34:47;;;;;;;1.63;1.10;;;;;;;;;;4978187;28;20545;-78
2021/05/04 16:37:13;;;;;;;3.75;1.40;;;;;;;;;;4960074;28;20088;-78
2021/05/04 16:39:40;;;;;;;3.40;1.40;;;;;;;;;;4985500;28;20153;-77
2021/05/04 16:42:06;;;;;;;2.67;1.13;;;;;;;;;;4967176;28;20124;-77
2021/05/04 16:44:33;;;;;;;2.33;1.20;;;;;;;;;;4984730;28;20280;-79
2021/05/04 16:47:01;;;;;;;4.72;1.20;;;;;;;;;;4966946;28;20049;-73
2021/05/04 16:49:27;;;;;;;2.33;1.10;;;;;;;;;;4984232;28;20061;-72
2021/05/04 16:51:56;;;;;;;3.70;1.30;;;;;;;;;;4979344;28;20065;-74
2021/05/04 16:54:23;;;;;;;2.30;1.20;;;;;;;;;;4983593;28;20078;-73
2021/05/04 16:56:50;;;;;;;2.17;0.90;;;;;;;;;;4983041;28;20667;-72
2021/05/04 16:59:17;;;;;;;2.63;1.30;;;;;;;;;;4982281;28;20203;-73
2021/05/04 17:01:44;;;;;;;2.10;1.10;;;;;;;;;;4984032;28;20136;-73
2021/05/04 17:04:10;;;;;;;3.03;1.27;;;;;;;;;;4982201;28;20062;-74